createdAt,value
2018-08-10T16:45:26.491Z,98742.51
2018-08-10T16:47:56.369Z,98742.51
2018-08-10T16:50:26.132Z,98734.41
2018-08-10T16:52:56.265Z,98740.57
2018-08-10T16:55:26.028Z,98738.41
2018-08-10T16:57:56.242Z,98737.45
2018-08-10T17:00:26.227Z,98734.17
2018-08-10T17:02:55.916Z,98728.70
2018-08-10T17:05:25.999Z,98731.56
2018-08-10T17:07:55.979Z,98735.06
2018-08-10T17:10:27.704Z,98735.82
2018-08-10T17:12:57.547Z,98737.00
2018-08-10T17:15:27.071Z,98735.03
2018-08-10T17:17:56.658Z,98737.73
2018-08-10T17:20:26.210Z,98734.70
2018-08-10T17:22:56.112Z,98732.75
2018-08-10T17:25:25.790Z,98736.12
2018-08-10T17:27:55.493Z,98730.77
2018-08-10T17:30:25.838Z,98728.73
2018-08-10T17:32:55.684Z,98730.05
2018-08-10T17:35:25.904Z,98734.45
2018-08-10T17:37:55.487Z,98729.80
2018-08-10T17:40:25.079Z,98726.16
2018-08-10T17:42:54.972Z,98724.48
2018-08-10T17:45:24.966Z,98730.52
2018-08-10T17:47:54.530Z,98730.70
2018-08-10T17:50:24.568Z,98732.39
2018-08-10T17:52:54.861Z,98722.27
2018-08-10T17:55:25.011Z,98733.84
2018-08-10T17:57:54.943Z,98738.55
2018-08-10T18:00:26.690Z,98739.47
2018-08-10T18:02:56.438Z,98734.33
2018-08-10T18:05:26.338Z,98737.87
2018-08-10T18:07:55.957Z,98738.06
2018-08-10T18:10:25.894Z,98737.61
2018-08-10T18:12:55.487Z,98733.49
2018-08-10T18:16:07.155Z,98733.69
2018-08-10T18:18:36.775Z,98739.56
2018-08-10T18:21:06.342Z,98748.14
2018-08-10T18:23:35.924Z,98747.34
2018-08-10T18:26:05.695Z,98748.38
2018-08-10T18:28:35.640Z,98747.23
2018-08-10T18:31:05.459Z,98747.75
2018-08-10T18:33:35.056Z,98746.13
2018-08-10T18:36:04.730Z,98751.48
2018-08-10T18:38:34.359Z,98753.85
2018-08-10T18:41:04.012Z,98756.86
2018-08-10T18:43:34.195Z,98759.38
2018-08-10T18:46:03.875Z,98755.75
2018-08-10T18:48:33.687Z,98752.95
2018-08-10T18:51:03.706Z,98755.42
2018-08-10T18:53:33.289Z,98760.27
2018-08-10T18:56:02.920Z,98755.61
2018-08-10T18:58:32.860Z,98758.76
2018-08-10T19:01:02.519Z,98760.60
2018-08-10T19:03:32.490Z,98762.42
2018-08-10T19:06:02.425Z,98759.41
2018-08-10T19:08:32.375Z,98757.91
2018-08-10T19:11:02.414Z,98767.70
2018-08-10T19:13:31.979Z,98769.52
2018-08-10T19:16:01.639Z,98764.66
2018-08-10T19:18:31.309Z,98772.96
2018-08-10T19:21:01.263Z,98767.63
2018-08-10T19:23:31.187Z,98767.11
2018-08-10T19:26:01.012Z,98763.89
2018-08-10T19:28:30.630Z,98772.83
2018-08-10T19:31:00.201Z,98771.45
2018-08-10T19:33:30.155Z,98773.73
2018-08-10T19:35:59.759Z,98768.03
2018-08-10T19:38:29.327Z,98771.48
2018-08-10T19:40:58.880Z,98780.75
2018-08-10T19:43:28.838Z,98772.89
2018-08-10T19:45:58.389Z,98770.20
2018-08-10T19:48:28.395Z,98772.16
2018-08-10T19:50:58.137Z,98772.30
2018-08-10T19:53:27.680Z,98779.41
2018-08-10T19:55:57.334Z,98778.86
2018-08-10T19:58:27.056Z,98784.48
2018-08-10T20:00:56.657Z,98785.92
2018-08-10T20:03:26.263Z,98780.10
2018-08-10T20:05:56.283Z,98782.35
2018-08-10T20:08:26.030Z,98775.83
2018-08-10T20:11:01.062Z,98777.96
2018-08-10T20:13:31.038Z,98779.44
2018-08-10T20:16:00.777Z,98778.11
2018-08-10T20:18:31.091Z,98777.77
2018-08-10T20:21:00.985Z,98779.70
2018-08-10T20:23:30.814Z,98778.68
2018-08-10T20:26:00.426Z,98777.35
2018-08-10T20:28:30.388Z,98768.67
2018-08-10T20:31:00.160Z,98771.12
2018-08-10T20:33:29.774Z,98769.22
2018-08-10T20:35:59.765Z,98767.22
2018-08-10T20:38:29.356Z,98770.84
2018-08-10T20:40:59.285Z,98771.67
2018-08-10T20:43:28.859Z,98767.83
2018-08-10T20:45:58.896Z,98770.53
2018-08-10T20:48:28.959Z,98775.05
2018-08-10T20:50:58.847Z,98778.09
2018-08-10T20:53:28.485Z,98782.58
2018-08-10T20:55:58.489Z,98781.05
2018-08-10T20:58:28.476Z,98775.72
2018-08-10T21:00:58.039Z,98778.02
2018-08-10T21:03:27.575Z,98773.98
2018-08-10T21:05:57.376Z,98764.67
2018-08-10T21:08:30.288Z,98768.39
2018-08-10T21:11:00.402Z,98770.66
2018-08-10T21:13:30.219Z,98767.48
2018-08-10T21:16:00.348Z,98769.25
2018-08-10T21:18:29.911Z,98763.89
2018-08-10T21:20:59.839Z,98769.16
2018-08-10T21:23:29.529Z,98764.30
2018-08-10T21:25:59.067Z,98763.80
2018-08-10T21:28:29.518Z,98762.41
2018-08-10T21:30:59.083Z,98766.06
2018-08-10T21:33:28.718Z,98762.81
2018-08-10T21:35:58.256Z,98769.02
2018-08-10T21:38:28.083Z,98768.69
2018-08-10T21:40:57.590Z,98758.86
2018-08-10T21:43:27.370Z,98758.50
2018-08-10T21:45:57.024Z,98760.12
2018-08-10T21:48:26.622Z,98760.02
2018-08-10T21:50:56.775Z,98759.73
2018-08-10T21:53:26.594Z,98760.73
2018-08-10T21:55:56.378Z,98751.91
2018-08-10T21:58:26.275Z,98757.63
2018-08-10T22:01:02.792Z,98760.20
2018-08-10T22:03:32.955Z,98756.48
2018-08-10T22:06:02.860Z,98762.52
2018-08-10T22:08:32.372Z,98756.48
2018-08-10T22:11:02.451Z,98761.59
2018-08-10T22:13:37.104Z,98761.94
2018-08-10T22:16:11.859Z,98761.04
2018-08-10T22:18:46.810Z,98776.37
2018-08-10T22:21:16.681Z,98768.50
2018-08-10T22:23:46.191Z,98766.41
2018-08-10T22:26:15.976Z,98767.80
2018-08-10T22:28:45.654Z,98771.19
2018-08-10T22:31:15.595Z,98771.33
2018-08-10T22:33:45.352Z,98765.69
2018-08-10T22:36:14.918Z,98775.49
2018-08-10T22:38:44.519Z,98783.02
2018-08-10T22:41:15.289Z,98779.32
2018-08-10T22:43:44.866Z,98781.77
2018-08-10T22:46:14.989Z,98782.37
2018-08-10T22:48:44.567Z,98782.19
2018-08-10T22:51:14.363Z,98778.36
2018-08-10T22:53:43.938Z,98778.91
2018-08-10T22:56:13.450Z,98776.17
2018-08-10T22:58:43.051Z,98778.59
2018-08-10T23:01:12.582Z,98768.88
2018-08-10T23:03:43.123Z,98771.53
2018-08-10T23:06:13.039Z,98764.70
2018-08-10T23:08:43.035Z,98762.47
2018-08-10T23:11:12.655Z,98761.69
2018-08-10T23:13:42.202Z,98763.41
2018-08-10T23:16:11.778Z,98760.77
2018-08-10T23:18:41.316Z,98765.23
2018-08-10T23:21:11.238Z,98760.41
2018-08-10T23:23:41.120Z,98759.30
2018-08-10T23:26:10.662Z,98763.40
2018-08-10T23:28:40.251Z,98768.81
2018-08-10T23:31:09.796Z,98774.23
2018-08-10T23:33:39.327Z,98772.00
2018-08-10T23:36:09.196Z,98771.18
2018-08-10T23:38:38.907Z,98766.30
2018-08-10T23:41:08.762Z,98774.63
2018-08-10T23:43:38.371Z,98772.02
2018-08-10T23:46:08.403Z,98771.39
2018-08-10T23:48:37.918Z,98768.69
2018-08-10T23:51:07.619Z,98763.81
2018-08-10T23:53:37.164Z,98766.71
2018-08-10T23:56:07.871Z,98767.34
2018-08-10T23:58:37.497Z,98768.53
